South Haven, MI

8:26 AM EST on November 22, 2017 (GMT -0500)
South Haven

Weather History for KLWA - November, 2012

Change the Weather History Date:

Monday, November 12, 2012

  Actual Average (KBEH) Record (KBEH)
Temperature  
Mean Temperature 44 °F -  
Max Temperature 53 °F 47 °F 72 °F (1964)
Min Temperature 35 °F 33 °F 20 °F (1993)
Degree Days  
Heating Degree Days 21    
Moisture  
Dew Point 32 °F    
Average Humidity 75    
Maximum Humidity 97    
Minimum Humidity 59    
Precipitation  
Precipitation 0.00 in - - ()
Sea Level Pressure  
Sea Level Pressure 30.07 in    
Wind  
Wind Speed 13 mph (WSW)    
Max Wind Speed 22 mph    
Max Gust Speed 31 mph    
Visibility 9 miles    
Events Rain , Snow    
Averages and records for this station are not official NWS values.
T = Trace of Precipitation, MM = Missing Value Source: NWS Daily Summary

Daily Weather History Graph

Daily Weather History Graph

Search for Another Location

Airport or City:

Trip Planner

Search our weather history database for the weather conditions in past years. The results will help you decide how hot, cold, wet, or windy it might be!

Date:

Astronomy

Nov. 12, 2012 Rise Set
Actual Time 7:32 AM EST 5:25 PM EST
Civil Twilight 7:02 AM EST 5:55 PM EST
Nautical Twilight 6:28 AM EST 6:29 PM EST
Astronomical Twilight 5:55 AM EST 7:02 PM EST
Moon 5:56 AM EST (11/12) 4:30 PM EST (11/12)
Length of Visible Light 10h 52m
Length of Day
9h 52m
Waning Crescent, 2% of the Moon is Illuminated
Nov 12
Waning Crescent
Nov 13
New
Nov 20
First Quarter
Nov 28
Full
Dec 6
Last Quarter

Hourly Weather History & Observations

Time (EST) Temp. Windchill Dew Point Humidity Pressure Visibility Wind Dir Wind Speed Gust Speed Precip Events Conditions
12:15 AM 53.6 °F - 52.7 °F 97% 29.90 in 3.0 mi WSW 9.2 mph - N/A   Heavy Drizzle
12:36 AM 53.2 °F - 52.3 °F 97% 29.90 in 4.0 mi SW 6.9 mph - N/A Rain Rain
1:15 AM 53.2 °F - 52.2 °F 96% 29.89 in 5.0 mi SSW 8.1 mph - N/A Rain Light Rain
1:55 AM 53.1 °F - 51.8 °F 95% 29.88 in 10.0 mi SW 8.1 mph - N/A Rain Rain
2:15 AM 53.2 °F - 52.0 °F 95% 29.90 in 5.0 mi SW 12.7 mph 18.4 mph N/A Rain Light Rain
2:35 AM 49.5 °F - 48.2 °F 95% 29.92 in 4.0 mi West 16.1 mph 20.7 mph N/A Rain Rain
2:55 AM 48.2 °F - 46.9 °F 95% 29.92 in 5.0 mi West 13.8 mph 18.4 mph N/A Rain Light Rain
3:15 AM 46.8 °F - 45.5 °F 95% 29.92 in 7.0 mi West 9.2 mph - N/A Rain Rain
3:35 AM 46.6 °F - 44.8 °F 93% 29.92 in 10.0 mi West 9.2 mph - N/A Rain Light Rain
3:55 AM 46.2 °F 42.2 °F 44.6 °F 94% 29.93 in 5.0 mi West 8.1 mph 19.6 mph N/A Rain Rain
4:15 AM 45.5 °F 39.6 °F 43.7 °F 93% 29.92 in 10.0 mi West 12.7 mph 17.3 mph N/A Rain Light Rain
4:35 AM 45.0 °F 40.1 °F 43.3 °F 94% 29.93 in 10.0 mi West 9.2 mph - N/A Rain Light Rain
4:55 AM 44.6 °F 39.2 °F 42.8 °F 93% 29.96 in 5.0 mi West 10.4 mph 17.3 mph N/A Rain Rain
5:15 AM 43.5 °F 37.5 °F 41.2 °F 91% 29.95 in 4.0 mi WSW 11.5 mph 20.7 mph N/A Rain Rain
5:35 AM 43.0 °F 36.8 °F 40.6 °F 91% 29.97 in 5.0 mi WSW 11.5 mph 17.3 mph N/A   Light Drizzle
5:55 AM 42.4 °F 36.1 °F 39.9 °F 91% 29.97 in 7.0 mi West 11.5 mph 18.4 mph N/A Rain Light Rain
6:16 AM 41.9 °F 36.3 °F 39.4 °F 91% 29.97 in 5.0 mi WSW 9.2 mph 19.6 mph N/A Rain Rain
6:35 AM 41.2 °F 33.7 °F 38.7 °F 91% 29.96 in 7.0 mi West 13.8 mph 20.7 mph N/A Rain Rain
6:55 AM 41.0 °F 34.3 °F 37.9 °F 89% 29.97 in 10.0 mi West 11.5 mph - N/A Rain Rain
7:35 AM 40.1 °F 32.4 °F 37.0 °F 89% 29.99 in 7.0 mi West 13.8 mph 19.6 mph N/A Rain Light Rain
7:55 AM 39.2 °F 32.0 °F 36.5 °F 90% 30.00 in 7.0 mi West 11.5 mph 20.7 mph N/A   Overcast
8:15 AM 39.2 °F 31.6 °F 34.7 °F 84% 30.01 in 10.0 mi West 12.7 mph 20.7 mph N/A   Light Drizzle
8:35 AM 39.0 °F 31.8 °F 34.0 °F 82% 30.01 in 10.0 mi WSW 11.5 mph 17.3 mph N/A   Overcast
8:55 AM 38.5 °F 30.7 °F 33.3 °F 81% 30.03 in 10.0 mi WSW 12.7 mph 18.4 mph N/A   Overcast
9:15 AM 38.3 °F 31.9 °F 32.2 °F 79% 30.03 in 10.0 mi West 9.2 mph 24.2 mph N/A   Overcast
9:35 AM 37.8 °F 29.0 °F 32.0 °F 80% 30.02 in 10.0 mi West 15.0 mph 20.7 mph N/A   Overcast
9:55 AM 37.4 °F 29.3 °F 32.0 °F 81% 30.04 in 10.0 mi WSW 12.7 mph 23.0 mph N/A   Overcast
10:15 AM 36.5 °F 26.3 °F 29.7 °F 76% 30.06 in 10.0 mi WSW 18.4 mph 24.2 mph N/A   Overcast
10:55 AM 35.8 °F 27.8 °F 29.1 °F 77% 30.07 in 10.0 mi West 11.5 mph 21.9 mph N/A   Overcast
11:15 AM 36.3 °F 26.1 °F 27.9 °F 71% 30.07 in 10.0 mi West 18.4 mph 24.2 mph N/A   Overcast
11:35 AM 37.0 °F 28.1 °F 29.5 °F 74% 30.07 in 10.0 mi West 15.0 mph 20.7 mph N/A   Overcast
11:55 AM 37.9 °F 29.6 °F 28.8 °F 70% 30.07 in 10.0 mi West 13.8 mph 25.3 mph N/A   Mostly Cloudy
12:15 PM 38.7 °F 29.8 °F 28.6 °F 67% 30.07 in 10.0 mi WSW 16.1 mph 24.2 mph N/A   Mostly Cloudy
12:35 PM 37.0 °F 27.4 °F 26.8 °F 66% 30.07 in 10.0 mi West 17.3 mph 28.8 mph N/A   Mostly Cloudy
12:55 PM 37.4 °F 28.5 °F 28.0 °F 69% 30.06 in 10.0 mi West 15.0 mph 23.0 mph N/A   Mostly Cloudy
1:35 PM 37.9 °F 27.9 °F 28.0 °F 68% 30.07 in 10.0 mi West 19.6 mph 29.9 mph N/A   Mostly Cloudy
1:55 PM 36.9 °F 27.5 °F 27.1 °F 68% 30.08 in 10.0 mi WSW 16.1 mph 25.3 mph N/A   Mostly Cloudy
2:15 PM 36.1 °F 26.2 °F 26.4 °F 68% 30.08 in 10.0 mi WSW 17.3 mph 23.0 mph N/A   Mostly Cloudy
2:35 PM 36.9 °F 28.2 °F 27.7 °F 69% 30.09 in 10.0 mi WSW 13.8 mph 24.2 mph N/A   Mostly Cloudy
2:56 PM 36.7 °F 27.2 °F 25.7 °F 64% 30.10 in 10.0 mi WSW 16.1 mph 28.8 mph N/A   Overcast
3:35 PM 36.3 °F 25.2 °F 25.0 °F 63% 30.10 in 10.0 mi WSW 21.9 mph 27.6 mph N/A   Overcast
3:55 PM 36.5 °F 26.3 °F 24.3 °F 61% 30.11 in 10.0 mi West 18.4 mph 27.6 mph N/A   Overcast
4:15 PM 36.5 °F 26.7 °F 24.6 °F 62% 30.12 in 10.0 mi WSW 17.3 mph 25.3 mph N/A   Overcast
4:36 PM 36.5 °F 28.2 °F 24.4 °F 62% 30.13 in 10.0 mi West 12.7 mph 29.9 mph N/A   Overcast
4:55 PM 36.7 °F 27.6 °F 24.1 °F 60% 30.14 in 10.0 mi WSW 15.0 mph 27.6 mph N/A   Overcast
5:15 PM 36.7 °F 27.2 °F 24.1 °F 60% 30.14 in 10.0 mi WSW 16.1 mph 24.2 mph N/A   Overcast
5:35 PM 36.7 °F 28.0 °F 24.3 °F 61% 30.15 in 10.0 mi WSW 13.8 mph 24.2 mph N/A   Overcast
5:55 PM 36.9 °F 26.5 °F 24.1 °F 60% 30.15 in 10.0 mi WSW 19.6 mph 29.9 mph N/A   Overcast
6:15 PM 36.9 °F 26.5 °F 24.3 °F 60% 30.17 in 10.0 mi West 19.6 mph 27.6 mph N/A   Overcast
6:35 PM 37.0 °F 26.7 °F 24.4 °F 60% 30.17 in 10.0 mi WSW 19.6 mph 28.8 mph N/A   Overcast
6:55 PM 37.0 °F 27.0 °F 24.8 °F 61% 30.18 in 10.0 mi WSW 18.4 mph 31.1 mph N/A   Overcast
7:15 PM 37.0 °F 27.7 °F 24.1 °F 59% 30.19 in 10.0 mi West 16.1 mph 26.5 mph N/A   Overcast
7:55 PM 37.0 °F 27.7 °F 25.5 °F 63% 30.19 in 10.0 mi West 16.1 mph 29.9 mph N/A   Overcast
8:15 PM 36.9 °F 27.8 °F 24.1 °F 60% 30.20 in 10.0 mi West 15.0 mph 27.6 mph N/A   Overcast
8:35 PM 36.7 °F 26.3 °F 24.8 °F 62% 30.20 in 10.0 mi West 19.6 mph 28.8 mph N/A   Overcast
8:55 PM 36.5 °F 26.7 °F 24.1 °F 61% 30.21 in 10.0 mi West 17.3 mph 27.6 mph N/A   Overcast
9:15 PM 36.5 °F 26.0 °F 24.6 °F 62% 30.22 in 10.0 mi West 19.6 mph 29.9 mph N/A   Overcast
9:35 PM 35.8 °F 24.8 °F 26.8 °F 70% 30.22 in 10.0 mi West 20.7 mph 29.9 mph N/A Snow Light Snow
9:55 PM 36.3 °F 26.1 °F 23.5 °F 60% 30.23 in 10.0 mi West 18.4 mph 28.8 mph N/A   Overcast
10:15 PM 35.8 °F 26.9 °F 23.9 °F 62% 30.24 in 10.0 mi West 13.8 mph 28.8 mph N/A   Overcast
10:35 PM 35.6 °F 25.5 °F 22.8 °F 60% 30.25 in 10.0 mi West 17.3 mph 27.6 mph N/A   Overcast
10:55 PM 35.1 °F 25.9 °F 22.5 °F 60% 30.26 in 10.0 mi West 13.8 mph 31.1 mph N/A   Overcast
11:15 PM 35.1 °F 23.5 °F 22.5 °F 60% 30.26 in 10.0 mi West 21.9 mph 28.8 mph N/A   Overcast
11:35 PM 35.1 °F 24.8 °F 23.0 °F 61% 30.27 in 10.0 mi West 17.3 mph 28.8 mph N/A   Overcast
11:55 PM 35.1 °F 25.2 °F 23.0 °F 61% 30.27 in 10.0 mi West 16.1 mph 29.9 mph N/A   Overcast